Des Moines, IA (50311)

6:02 AM CST on February 07, 2016 (GMT -0600)
Waveland | | Change Station
CLOSE
Current Station
Personal Weather Station
Location: Des Moines, IA
Elevation: 955 ft
Nearby Weather Stations

Elev 955 ft 41.60 °N, 93.68 °W | Updated 4 seconds ago

Overcast
Overcast
36.9 °F
Feels Like 34 °F
N
4.0
Wind Variable Wind from SW
Gusts 4.9 mph

Today
High -- | Low -- °F
--% Chance of Precip.
Yesterday
High -- | Low -- °F
Precip. -- in
Pressure 29.90 in
Visibility 10.0 miles
Clouds Mostly Cloudy 12000 ft
Overcast 24000 ft
Windchill 34 °F
Dew Point 26 °F
Humidity 63%
Rainfall 0.00 in
Snow Depth Not available.
7:20 AM 5:37 PM
Waning Crescent, 2% visible
METAR KDSM 071154Z 27009KT 10SM BKN120 OVC240 02/M03 A2987 RMK AO2 SLP124 4/001 T00221028 10044 20017 55003
Pressure 29.90 in
Visibility 10.0 miles
Clouds Mostly Cloudy 12000 ft
Overcast 24000 ft
Windchill 34 °F
Dew Point 26 °F
Humidity 63%
Rainfall 0.00 in
Snow Depth Not available.
7:20 AM 5:37 PM
Waning Crescent, 2% visible
METAR KDSM 071154Z 27009KT 10SM BKN120 OVC240 02/M03 A2987 RMK AO2 SLP124 4/001 T00221028 10044 20017 55003

10-Day Weather Forecast

Almanac

Astronomy

Feb. 07, 2016 Rise Set
Actual Time
Civil Twilight
Nautical Twilight
Astronomical Twilight
Moon
Length of Visible Light
Length of Day
Tomorrow will be .
, % of the Moon is Illuminated

Today's Extremes

State Highs State Lows

Community

WunderPhotos

Upload Photos

1,891,182 photos uploaded!

WunderBlog® & News

Nearby

Air Quality

  Air Quality AQ Index Pollutant
Not available.

Snow Depth

Station Depth Elevation

Earthquake Activity

City Distance Mag. Time & Date
Minimum magnitude displayed is 2.5.

Coastal Water Temperatures

Place Temperature

Stations

Nearby Weather Stations

Station Location Temp. Windchill Dew Point Humidity Wind Precip. Elev Updated Type
                   

Watches & Warnings

There are currently no watches in effect.